sensor_id;sensor_type;location;lat;lon;timestamp;temperature;humidity
52963;DHT22;38827;53.024;6.596;2022-10-17T00:00:29;12.70;77.60
52963;DHT22;38827;53.024;6.596;2022-10-17T00:02:55;12.70;77.70
52963;DHT22;38827;53.024;6.596;2022-10-17T00:05:22;12.70;77.50
52963;DHT22;38827;53.024;6.596;2022-10-17T00:07:47;12.70;77.50
52963;DHT22;38827;53.024;6.596;2022-10-17T00:10:13;12.70;77.60
52963;DHT22;38827;53.024;6.596;2022-10-17T00:12:39;12.70;77.60
52963;DHT22;38827;53.024;6.596;2022-10-17T00:15:05;12.70;77.70
52963;DHT22;38827;53.024;6.596;2022-10-17T00:17:32;12.70;77.80
52963;DHT22;38827;53.024;6.596;2022-10-17T00:19:59;12.70;77.60
52963;DHT22;38827;53.024;6.596;2022-10-17T00:22:25;12.70;77.80
52963;DHT22;38827;53.024;6.596;2022-10-17T00:24:51;12.70;77.80
52963;DHT22;38827;53.024;6.596;2022-10-17T00:27:17;12.70;77.80
52963;DHT22;38827;53.024;6.596;2022-10-17T00:29:46;12.80;77.80
52963;DHT22;38827;53.024;6.596;2022-10-17T00:32:21;12.70;77.90
52963;DHT22;38827;53.024;6.596;2022-10-17T00:34:47;12.70;77.90
52963;DHT22;38827;53.024;6.596;2022-10-17T00:37:45;12.80;77.90
52963;DHT22;38827;53.024;6.596;2022-10-17T00:40:14;12.80;77.70
52963;DHT22;38827;53.024;6.596;2022-10-17T00:42:42;12.70;78.10
52963;DHT22;38827;53.024;6.596;2022-10-17T00:45:23;12.70;78.10
52963;DHT22;38827;53.024;6.596;2022-10-17T00:47:56;12.70;78.10
52963;DHT22;38827;53.024;6.596;2022-10-17T00:50:23;12.70;78.40
52963;DHT22;38827;53.024;6.596;2022-10-17T00:52:51;12.70;78.40
52963;DHT22;38827;53.024;6.596;2022-10-17T00:55:26;12.70;78.40
52963;DHT22;38827;53.024;6.596;2022-10-17T00:57:56;12.70;78.50
52963;DHT22;38827;53.024;6.596;2022-10-17T01:00:24;12.70;78.50
52963;DHT22;38827;53.024;6.596;2022-10-17T01:02:49;12.70;78.60
52963;DHT22;38827;53.024;6.596;2022-10-17T01:05:16;12.70;78.70
52963;DHT22;38827;53.024;6.596;2022-10-17T01:07:46;12.80;78.90
52963;DHT22;38827;53.024;6.596;2022-10-17T01:10:13;12.80;79.00
52963;DHT22;38827;53.024;6.596;2022-10-17T01:12:56;12.80;79.10
52963;DHT22;38827;53.024;6.596;2022-10-17T01:15:35;12.80;79.10
52963;DHT22;38827;53.024;6.596;2022-10-17T01:18:21;12.80;79.30
52963;DHT22;38827;53.024;6.596;2022-10-17T01:23:51;12.90;79.40
52963;DHT22;38827;53.024;6.596;2022-10-17T01:27:17;12.80;79.50
52963;DHT22;38827;53.024;6.596;2022-10-17T01:30:16;12.90;79.20
52963;DHT22;38827;53.024;6.596;2022-10-17T01:32:53;12.90;79.20
52963;DHT22;38827;53.024;6.596;2022-10-17T01:35:27;13.00;79.40
52963;DHT22;38827;53.024;6.596;2022-10-17T01:38:06;13.00;79.50
52963;DHT22;38827;53.024;6.596;2022-10-17T01:40:44;13.00;79.60
52963;DHT22;38827;53.024;6.596;2022-10-17T01:43:28;13.00;79.60
52963;DHT22;38827;53.024;6.596;2022-10-17T01:48:37;13.00;79.80
52963;DHT22;38827;53.024;6.596;2022-10-17T01:51:23;13.00;79.80
52963;DHT22;38827;53.024;6.596;2022-10-17T01:54:19;13.00;79.90
52963;DHT22;38827;53.024;6.596;2022-10-17T01:56:52;13.00;80.00
52963;DHT22;38827;53.024;6.596;2022-10-17T01:59:22;13.00;80.20
52963;DHT22;38827;53.024;6.596;2022-10-17T02:01:53;13.00;80.20
52963;DHT22;38827;53.024;6.596;2022-10-17T02:04:20;13.00;80.40
52963;DHT22;38827;53.024;6.596;2022-10-17T02:06:46;13.00;80.50
52963;DHT22;38827;53.024;6.596;2022-10-17T02:11:44;13.00;80.70
52963;DHT22;38827;53.024;6.596;2022-10-17T02:14:46;13.00;80.70
52963;DHT22;38827;53.024;6.596;2022-10-17T02:20:14;12.90;80.80
52963;DHT22;38827;53.024;6.596;2022-10-17T02:22:57;12.90;80.80
52963;DHT22;38827;53.024;6.596;2022-10-17T02:25:44;12.90;80.90
52963;DHT22;38827;53.024;6.596;2022-10-17T02:28:32;12.80;81.00
52963;DHT22;38827;53.024;6.596;2022-10-17T02:31:07;12.80;81.00
52963;DHT22;38827;53.024;6.596;2022-10-17T02:33:48;12.80;81.20
52963;DHT22;38827;53.024;6.596;2022-10-17T02:36:20;12.80;81.20
52963;DHT22;38827;53.024;6.596;2022-10-17T02:38:52;12.80;81.40
52963;DHT22;38827;53.024;6.596;2022-10-17T02:41:19;12.80;81.40
52963;DHT22;38827;53.024;6.596;2022-10-17T02:43:47;12.80;81.60
52963;DHT22;38827;53.024;6.596;2022-10-17T02:46:17;12.80;81.80
52963;DHT22;38827;53.024;6.596;2022-10-17T02:49:00;12.80;82.00
52963;DHT22;38827;53.024;6.596;2022-10-17T02:54:07;12.80;82.20
52963;DHT22;38827;53.024;6.596;2022-10-17T02:57:02;12.90;82.20
52963;DHT22;38827;53.024;6.596;2022-10-17T02:59:29;12.90;82.30
52963;DHT22;38827;53.024;6.596;2022-10-17T03:01:56;12.80;82.40
52963;DHT22;38827;53.024;6.596;2022-10-17T03:04:24;12.90;82.30
52963;DHT22;38827;53.024;6.596;2022-10-17T03:06:51;12.90;82.50
52963;DHT22;38827;53.024;6.596;2022-10-17T03:09:18;12.90;82.50
52963;DHT22;38827;53.024;6.596;2022-10-17T03:11:43;12.90;82.60
52963;DHT22;38827;53.024;6.596;2022-10-17T03:14:10;12.90;82.60
52963;DHT22;38827;53.024;6.596;2022-10-17T03:16:36;12.90;82.80
52963;DHT22;38827;53.024;6.596;2022-10-17T03:19:03;12.90;82.80
52963;DHT22;38827;53.024;6.596;2022-10-17T03:21:28;12.90;82.90
52963;DHT22;38827;53.024;6.596;2022-10-17T03:23:54;12.90;83.00
52963;DHT22;38827;53.024;6.596;2022-10-17T03:26:20;12.90;83.20
52963;DHT22;38827;53.024;6.596;2022-10-17T03:28:46;12.90;83.40
52963;DHT22;38827;53.024;6.596;2022-10-17T03:31:14;12.90;83.50
52963;DHT22;38827;53.024;6.596;2022-10-17T03:33:40;12.90;83.50
52963;DHT22;38827;53.024;6.596;2022-10-17T03:36:07;12.90;83.60
52963;DHT22;38827;53.024;6.596;2022-10-17T03:38:34;12.90;83.70
52963;DHT22;38827;53.024;6.596;2022-10-17T03:41:04;12.90;83.90
52963;DHT22;38827;53.024;6.596;2022-10-17T03:43:49;13.00;84.00
52963;DHT22;38827;53.024;6.596;2022-10-17T03:46:19;13.00;84.20
52963;DHT22;38827;53.024;6.596;2022-10-17T03:48:51;13.00;84.20
52963;DHT22;38827;53.024;6.596;2022-10-17T03:51:17;13.00;84.50
52963;DHT22;38827;53.024;6.596;2022-10-17T03:53:45;13.00;84.50
52963;DHT22;38827;53.024;6.596;2022-10-17T03:56:26;13.10;84.70
52963;DHT22;38827;53.024;6.596;2022-10-17T03:58:53;13.10;84.70
52963;DHT22;38827;53.024;6.596;2022-10-17T04:01:31;13.10;84.70
52963;DHT22;38827;53.024;6.596;2022-10-17T04:04:00;13.10;84.70
52963;DHT22;38827;53.024;6.596;2022-10-17T04:06:41;13.20;85.00
52963;DHT22;38827;53.024;6.596;2022-10-17T04:09:27;13.20;84.90
52963;DHT22;38827;53.024;6.596;2022-10-17T04:11:53;13.20;85.00
52963;DHT22;38827;53.024;6.596;2022-10-17T04:14:22;13.20;85.10
52963;DHT22;38827;53.024;6.596;2022-10-17T04:16:47;13.20;85.20
52963;DHT22;38827;53.024;6.596;2022-10-17T04:19:25;13.20;85.20
52963;DHT22;38827;53.024;6.596;2022-10-17T04:21:51;13.30;85.40
52963;DHT22;38827;53.024;6.596;2022-10-17T04:24:32;13.30;85.50
52963;DHT22;38827;53.024;6.596;2022-10-17T04:26:57;13.30;85.50
52963;DHT22;38827;53.024;6.596;2022-10-17T04:29:40;13.40;85.80
52963;DHT22;38827;53.024;6.596;2022-10-17T04:32:15;13.40;85.70
52963;DHT22;38827;53.024;6.596;2022-10-17T04:34:41;13.40;85.70
52963;DHT22;38827;53.024;6.596;2022-10-17T04:37:07;13.40;85.80
52963;DHT22;38827;53.024;6.596;2022-10-17T04:39:32;13.50;85.90
52963;DHT22;38827;53.024;6.596;2022-10-17T04:41:59;13.50;86.10
52963;DHT22;38827;53.024;6.596;2022-10-17T04:44:25;13.60;86.10
52963;DHT22;38827;53.024;6.596;2022-10-17T04:46:52;13.60;86.50
52963;DHT22;38827;53.024;6.596;2022-10-17T04:49:17;13.70;86.30
52963;DHT22;38827;53.024;6.596;2022-10-17T04:51:46;13.80;86.40
52963;DHT22;38827;53.024;6.596;2022-10-17T04:54:14;13.80;86.20
52963;DHT22;38827;53.024;6.596;2022-10-17T04:56:42;13.90;86.20
52963;DHT22;38827;53.024;6.596;2022-10-17T04:59:08;13.90;86.20
52963;DHT22;38827;53.024;6.596;2022-10-17T05:01:33;13.90;86.30
52963;DHT22;38827;53.024;6.596;2022-10-17T05:04:00;13.90;86.10
52963;DHT22;38827;53.024;6.596;2022-10-17T05:06:26;14.00;86.00
52963;DHT22;38827;53.024;6.596;2022-10-17T05:08:57;14.00;85.90
52963;DHT22;38827;53.024;6.596;2022-10-17T05:11:27;14.00;86.10
52963;DHT22;38827;53.024;6.596;2022-10-17T05:13:56;14.10;86.00
52963;DHT22;38827;53.024;6.596;2022-10-17T05:16:22;14.10;86.00
52963;DHT22;38827;53.024;6.596;2022-10-17T05:18:50;14.10;86.10
52963;DHT22;38827;53.024;6.596;2022-10-17T05:21:16;14.10;86.10
52963;DHT22;38827;53.024;6.596;2022-10-17T05:23:42;14.20;86.30
52963;DHT22;38827;53.024;6.596;2022-10-17T05:26:11;14.20;86.20
52963;DHT22;38827;53.024;6.596;2022-10-17T05:28:37;14.20;86.30
52963;DHT22;38827;53.024;6.596;2022-10-17T05:31:04;14.20;86.40
52963;DHT22;38827;53.024;6.596;2022-10-17T05:33:31;14.20;86.60
52963;DHT22;38827;53.024;6.596;2022-10-17T05:35:57;14.30;86.40
52963;DHT22;38827;53.024;6.596;2022-10-17T05:38:23;14.30;86.20
52963;DHT22;38827;53.024;6.596;2022-10-17T05:40:49;14.30;86.00
52963;DHT22;38827;53.024;6.596;2022-10-17T05:43:15;14.30;86.20
52963;DHT22;38827;53.024;6.596;2022-10-17T05:45:41;14.30;86.10
52963;DHT22;38827;53.024;6.596;2022-10-17T05:48:07;14.30;86.00
52963;DHT22;38827;53.024;6.596;2022-10-17T05:50:39;14.30;86.10
52963;DHT22;38827;53.024;6.596;2022-10-17T05:53:07;14.30;86.00
52963;DHT22;38827;53.024;6.596;2022-10-17T05:55:37;14.30;86.10
52963;DHT22;38827;53.024;6.596;2022-10-17T05:58:03;14.30;86.00
52963;DHT22;38827;53.024;6.596;2022-10-17T06:00:29;14.30;86.10
52963;DHT22;38827;53.024;6.596;2022-10-17T06:02:55;14.30;86.20
52963;DHT22;38827;53.024;6.596;2022-10-17T06:05:21;14.30;86.20
52963;DHT22;38827;53.024;6.596;2022-10-17T06:07:46;14.30;86.20
52963;DHT22;38827;53.024;6.596;2022-10-17T06:10:14;14.30;86.20
52963;DHT22;38827;53.024;6.596;2022-10-17T06:12:41;14.30;86.20
52963;DHT22;38827;53.024;6.596;2022-10-17T06:15:08;14.30;86.40
52963;DHT22;38827;53.024;6.596;2022-10-17T06:17:34;14.30;86.40
52963;DHT22;38827;53.024;6.596;2022-10-17T06:20:00;14.30;86.10
52963;DHT22;38827;53.024;6.596;2022-10-17T06:22:26;14.30;86.20
52963;DHT22;38827;53.024;6.596;2022-10-17T06:24:52;14.30;86.30
52963;DHT22;38827;53.024;6.596;2022-10-17T06:27:18;14.40;86.20
52963;DHT22;38827;53.024;6.596;2022-10-17T06:29:45;14.40;86.10
52963;DHT22;38827;53.024;6.596;2022-10-17T06:32:11;14.40;86.30
52963;DHT22;38827;53.024;6.596;2022-10-17T06:34:37;14.40;86.30
52963;DHT22;38827;53.024;6.596;2022-10-17T06:37:05;14.50;86.30
52963;DHT22;38827;53.024;6.596;2022-10-17T06:39:35;14.50;86.30
52963;DHT22;38827;53.024;6.596;2022-10-17T06:42:01;14.50;86.50
52963;DHT22;38827;53.024;6.596;2022-10-17T06:44:41;14.60;86.40
52963;DHT22;38827;53.024;6.596;2022-10-17T06:47:23;14.60;86.50
52963;DHT22;38827;53.024;6.596;2022-10-17T06:49:58;14.70;86.70
52963;DHT22;38827;53.024;6.596;2022-10-17T06:52:30;14.70;86.80
52963;DHT22;38827;53.024;6.596;2022-10-17T06:57:41;14.90;86.80
52963;DHT22;38827;53.024;6.596;2022-10-17T07:00:16;14.90;86.70
52963;DHT22;38827;53.024;6.596;2022-10-17T07:05:27;15.10;86.60
52963;DHT22;38827;53.024;6.596;2022-10-17T07:08:25;15.20;86.50
52963;DHT22;38827;53.024;6.596;2022-10-17T07:10:51;15.30;86.20
52963;DHT22;38827;53.024;6.596;2022-10-17T07:13:18;15.30;86.30
52963;DHT22;38827;53.024;6.596;2022-10-17T07:15:44;15.40;86.10
52963;DHT22;38827;53.024;6.596;2022-10-17T07:18:13;15.60;86.00
52963;DHT22;38827;53.024;6.596;2022-10-17T07:20:39;15.70;85.70
52963;DHT22;38827;53.024;6.596;2022-10-17T07:23:38;15.80;85.40
52963;DHT22;38827;53.024;6.596;2022-10-17T07:26:06;15.90;85.00
52963;DHT22;38827;53.024;6.596;2022-10-17T07:31:29;16.00;84.80
52963;DHT22;38827;53.024;6.596;2022-10-17T07:37:04;16.10;84.40
52963;DHT22;38827;53.024;6.596;2022-10-17T07:39:43;16.10;84.40
52963;DHT22;38827;53.024;6.596;2022-10-17T07:42:27;16.20;84.10
52963;DHT22;38827;53.024;6.596;2022-10-17T07:44:59;16.30;84.20
52963;DHT22;38827;53.024;6.596;2022-10-17T07:47:26;16.30;83.90
52963;DHT22;38827;53.024;6.596;2022-10-17T07:49:55;16.40;84.00
52963;DHT22;38827;53.024;6.596;2022-10-17T07:52:46;16.60;83.50
52963;DHT22;38827;53.024;6.596;2022-10-17T07:55:18;16.80;82.90
52963;DHT22;38827;53.024;6.596;2022-10-17T07:57:56;16.90;82.50
52963;DHT22;38827;53.024;6.596;2022-10-17T08:00:40;16.80;82.20
52963;DHT22;38827;53.024;6.596;2022-10-17T08:05:44;16.80;82.40
52963;DHT22;38827;53.024;6.596;2022-10-17T08:08:09;16.80;82.40
52963;DHT22;38827;53.024;6.596;2022-10-17T08:10:47;17.00;82.40
52963;DHT22;38827;53.024;6.596;2022-10-17T08:16:18;17.40;81.60
52963;DHT22;38827;53.024;6.596;2022-10-17T08:18:44;17.60;80.40
52963;DHT22;38827;53.024;6.596;2022-10-17T08:21:27;17.60;80.50
52963;DHT22;38827;53.024;6.596;2022-10-17T08:24:11;17.70;79.90
52963;DHT22;38827;53.024;6.596;2022-10-17T08:27:02;17.70;79.60
52963;DHT22;38827;53.024;6.596;2022-10-17T08:29:56;17.60;79.50
52963;DHT22;38827;53.024;6.596;2022-10-17T08:32:26;17.60;79.90
52963;DHT22;38827;53.024;6.596;2022-10-17T08:35:11;17.50;80.10
52963;DHT22;38827;53.024;6.596;2022-10-17T08:37:57;17.50;79.90
52963;DHT22;38827;53.024;6.596;2022-10-17T08:40:32;17.50;80.00
52963;DHT22;38827;53.024;6.596;2022-10-17T08:46:05;17.40;80.40
52963;DHT22;38827;53.024;6.596;2022-10-17T08:51:34;17.30;80.70
52963;DHT22;38827;53.024;6.596;2022-10-17T08:54:44;17.30;80.80
52963;DHT22;38827;53.024;6.596;2022-10-17T08:57:47;17.30;80.80
52963;DHT22;38827;53.024;6.596;2022-10-17T09:00:30;17.30;80.80
52963;DHT22;38827;53.024;6.596;2022-10-17T09:06:10;17.30;80.90
52963;DHT22;38827;53.024;6.596;2022-10-17T09:22:22;17.40;80.70
52963;DHT22;38827;53.024;6.596;2022-10-17T09:25:14;17.40;80.80
52963;DHT22;38827;53.024;6.596;2022-10-17T09:28:18;17.40;80.90
52963;DHT22;38827;53.024;6.596;2022-10-17T09:31:05;17.30;80.90
52963;DHT22;38827;53.024;6.596;2022-10-17T09:33:53;17.30;80.90
52963;DHT22;38827;53.024;6.596;2022-10-17T09:36:52;17.30;81.10
52963;DHT22;38827;53.024;6.596;2022-10-17T09:39:21;17.40;81.00
52963;DHT22;38827;53.024;6.596;2022-10-17T09:42:50;17.30;81.30
52963;DHT22;38827;53.024;6.596;2022-10-17T09:49:08;17.40;81.40
52963;DHT22;38827;53.024;6.596;2022-10-17T09:55:47;17.30;81.70
52963;DHT22;38827;53.024;6.596;2022-10-17T09:58:47;17.30;81.80
52963;DHT22;38827;53.024;6.596;2022-10-17T10:15:12;17.00;83.00
52963;DHT22;38827;53.024;6.596;2022-10-17T10:18:45;16.90;83.30
52963;DHT22;38827;53.024;6.596;2022-10-17T11:24:43;17.10;85.90
52963;DHT22;38827;53.024;6.596;2022-10-17T11:27:19;17.10;86.10
52963;DHT22;38827;53.024;6.596;2022-10-17T11:29:51;17.20;86.00
52963;DHT22;38827;53.024;6.596;2022-10-17T11:32:25;17.10;86.00
52963;DHT22;38827;53.024;6.596;2022-10-17T11:35:22;17.10;86.00
52963;DHT22;38827;53.024;6.596;2022-10-17T11:44:58;17.10;86.20
52963;DHT22;38827;53.024;6.596;2022-10-17T11:47:47;17.10;86.10
52963;DHT22;38827;53.024;6.596;2022-10-17T12:11:03;17.40;86.60
52963;DHT22;38827;53.024;6.596;2022-10-17T12:19:25;17.80;85.20
52963;DHT22;38827;53.024;6.596;2022-10-17T12:53:17;17.50;84.30
52963;DHT22;38827;53.024;6.596;2022-10-17T12:56:01;17.40;84.50
52963;DHT22;38827;53.024;6.596;2022-10-17T12:58:31;17.30;84.40
52963;DHT22;38827;53.024;6.596;2022-10-17T13:03:46;17.10;84.00
52963;DHT22;38827;53.024;6.596;2022-10-17T13:06:22;17.00;83.90
52963;DHT22;38827;53.024;6.596;2022-10-17T13:12:27;16.90;84.30
52963;DHT22;38827;53.024;6.596;2022-10-17T13:14:56;16.80;84.40
52963;DHT22;38827;53.024;6.596;2022-10-17T13:17:40;16.80;84.50
52963;DHT22;38827;53.024;6.596;2022-10-17T13:20:29;16.80;84.40
52963;DHT22;38827;53.024;6.596;2022-10-17T13:23:01;16.70;84.70
52963;DHT22;38827;53.024;6.596;2022-10-17T13:25:58;16.70;84.80
52963;DHT22;38827;53.024;6.596;2022-10-17T13:28:32;16.70;84.90
52963;DHT22;38827;53.024;6.596;2022-10-17T13:31:04;16.60;85.20
52963;DHT22;38827;53.024;6.596;2022-10-17T13:33:39;16.60;85.20
52963;DHT22;38827;53.024;6.596;2022-10-17T13:39:16;16.60;85.20
52963;DHT22;38827;53.024;6.596;2022-10-17T13:45:00;16.50;85.40
52963;DHT22;38827;53.024;6.596;2022-10-17T13:47:39;16.50;85.60
52963;DHT22;38827;53.024;6.596;2022-10-17T13:50:57;16.50;85.50
52963;DHT22;38827;53.024;6.596;2022-10-17T13:53:36;16.40;85.50
52963;DHT22;38827;53.024;6.596;2022-10-17T13:56:28;16.40;85.90
52963;DHT22;38827;53.024;6.596;2022-10-17T13:59:42;16.50;85.90
52963;DHT22;38827;53.024;6.596;2022-10-17T14:02:26;16.50;85.70
52963;DHT22;38827;53.024;6.596;2022-10-17T14:05:27;16.50;85.50
52963;DHT22;38827;53.024;6.596;2022-10-17T14:08:26;16.50;85.30
52963;DHT22;38827;53.024;6.596;2022-10-17T14:13:53;16.40;85.70
52963;DHT22;38827;53.024;6.596;2022-10-17T14:16:41;16.40;85.70
52963;DHT22;38827;53.024;6.596;2022-10-17T14:19:38;16.40;85.60
52963;DHT22;38827;53.024;6.596;2022-10-17T14:25:02;16.50;85.40
52963;DHT22;38827;53.024;6.596;2022-10-17T14:31:11;16.40;85.20
52963;DHT22;38827;53.024;6.596;2022-10-17T14:34:15;16.40;85.40
52963;DHT22;38827;53.024;6.596;2022-10-17T14:36:40;16.50;85.30
52963;DHT22;38827;53.024;6.596;2022-10-17T14:39:27;16.50;85.40
52963;DHT22;38827;53.024;6.596;2022-10-17T14:41:53;16.50;85.20
52963;DHT22;38827;53.024;6.596;2022-10-17T14:44:46;16.50;85.00
52963;DHT22;38827;53.024;6.596;2022-10-17T14:47:26;16.50;84.80
52963;DHT22;38827;53.024;6.596;2022-10-17T14:50:22;16.50;84.80
52963;DHT22;38827;53.024;6.596;2022-10-17T15:02:56;16.30;84.70
52963;DHT22;38827;53.024;6.596;2022-10-17T15:05:22;16.30;84.90
52963;DHT22;38827;53.024;6.596;2022-10-17T15:08:33;16.30;84.80
52963;DHT22;38827;53.024;6.596;2022-10-17T15:11:04;16.20;84.80
52963;DHT22;38827;53.024;6.596;2022-10-17T15:13:45;16.20;84.80
52963;DHT22;38827;53.024;6.596;2022-10-17T15:16:24;16.20;84.60
52963;DHT22;38827;53.024;6.596;2022-10-17T15:24:41;16.30;84.60
52963;DHT22;38827;53.024;6.596;2022-10-17T16:22:23;15.60;84.90
52963;DHT22;38827;53.024;6.596;2022-10-17T17:08:57;15.10;86.80
52963;DHT22;38827;53.024;6.596;2022-10-17T18:33:41;14.80;88.80
52963;DHT22;38827;53.024;6.596;2022-10-17T18:43:56;14.70;89.00
52963;DHT22;38827;53.024;6.596;2022-10-17T18:54:44;14.70;89.20
52963;DHT22;38827;53.024;6.596;2022-10-17T19:01:19;14.70;89.40
52963;DHT22;38827;53.024;6.596;2022-10-17T19:03:53;14.70;89.50
52963;DHT22;38827;53.024;6.596;2022-10-17T19:33:12;14.70;89.60
52963;DHT22;38827;53.024;6.596;2022-10-17T20:31:39;14.50;89.90
52963;DHT22;38827;53.024;6.596;2022-10-17T20:34:21;14.40;90.00
52963;DHT22;38827;53.024;6.596;2022-10-17T20:37:27;14.50;89.90
52963;DHT22;38827;53.024;6.596;2022-10-17T20:39:56;14.50;90.00
52963;DHT22;38827;53.024;6.596;2022-10-17T20:42:28;14.50;90.10
52963;DHT22;38827;53.024;6.596;2022-10-17T20:44:56;14.50;90.10
52963;DHT22;38827;53.024;6.596;2022-10-17T20:47:43;14.50;90.00
52963;DHT22;38827;53.024;6.596;2022-10-17T20:50:16;14.50;90.10
52963;DHT22;38827;53.024;6.596;2022-10-17T20:53:00;14.50;90.20
52963;DHT22;38827;53.024;6.596;2022-10-17T20:55:47;14.50;90.10
52963;DHT22;38827;53.024;6.596;2022-10-17T20:58:25;14.50;90.10
52963;DHT22;38827;53.024;6.596;2022-10-17T21:01:06;14.40;90.10
52963;DHT22;38827;53.024;6.596;2022-10-17T21:03:38;14.40;90.30
52963;DHT22;38827;53.024;6.596;2022-10-17T21:06:09;14.40;90.30
52963;DHT22;38827;53.024;6.596;2022-10-17T21:08:35;14.40;90.20
52963;DHT22;38827;53.024;6.596;2022-10-17T21:14:10;14.40;90.30
52963;DHT22;38827;53.024;6.596;2022-10-17T21:16:46;14.40;90.10
52963;DHT22;38827;53.024;6.596;2022-10-17T21:19:20;14.40;90.20
52963;DHT22;38827;53.024;6.596;2022-10-17T21:21:55;14.40;90.30
52963;DHT22;38827;53.024;6.596;2022-10-17T21:24:39;14.30;90.30
52963;DHT22;38827;53.024;6.596;2022-10-17T21:27:17;14.30;90.30
52963;DHT22;38827;53.024;6.596;2022-10-17T21:29:44;14.30;90.30
52963;DHT22;38827;53.024;6.596;2022-10-17T21:32:43;14.30;90.10
52963;DHT22;38827;53.024;6.596;2022-10-17T21:35:54;14.30;90.10
52963;DHT22;38827;53.024;6.596;2022-10-17T21:41:38;14.30;90.30
52963;DHT22;38827;53.024;6.596;2022-10-17T21:45:04;14.30;90.30
52963;DHT22;38827;53.024;6.596;2022-10-17T21:47:27;14.20;90.10
52963;DHT22;38827;53.024;6.596;2022-10-17T21:50:00;14.20;90.40
52963;DHT22;38827;53.024;6.596;2022-10-17T21:52:25;14.20;90.40
52963;DHT22;38827;53.024;6.596;2022-10-17T21:54:51;14.20;90.30
52963;DHT22;38827;53.024;6.596;2022-10-17T21:57:29;14.20;90.40
52963;DHT22;38827;53.024;6.596;2022-10-17T21:59:57;14.20;90.60
52963;DHT22;38827;53.024;6.596;2022-10-17T22:02:41;14.30;90.60
52963;DHT22;38827;53.024;6.596;2022-10-17T22:05:10;14.30;90.60
52963;DHT22;38827;53.024;6.596;2022-10-17T22:07:36;14.20;90.50
52963;DHT22;38827;53.024;6.596;2022-10-17T22:10:17;14.20;90.60
52963;DHT22;38827;53.024;6.596;2022-10-17T22:12:52;14.30;90.70
52963;DHT22;38827;53.024;6.596;2022-10-17T22:15:21;14.20;90.50
52963;DHT22;38827;53.024;6.596;2022-10-17T22:17:49;14.20;90.60
52963;DHT22;38827;53.024;6.596;2022-10-17T22:20:15;14.20;90.50
52963;DHT22;38827;53.024;6.596;2022-10-17T22:23:09;14.10;90.50
52963;DHT22;38827;53.024;6.596;2022-10-17T22:25:38;14.10;90.60
52963;DHT22;38827;53.024;6.596;2022-10-17T22:28:14;14.10;90.60
52963;DHT22;38827;53.024;6.596;2022-10-17T22:30:40;14.00;90.60
52963;DHT22;38827;53.024;6.596;2022-10-17T22:33:11;14.00;90.60
52963;DHT22;38827;53.024;6.596;2022-10-17T22:35:47;14.00;90.70
52963;DHT22;38827;53.024;6.596;2022-10-17T22:38:30;14.00;90.60
52963;DHT22;38827;53.024;6.596;2022-10-17T22:41:14;14.00;90.70
52963;DHT22;38827;53.024;6.596;2022-10-17T22:43:59;13.90;90.70
52963;DHT22;38827;53.024;6.596;2022-10-17T22:46:40;13.90;90.60
52963;DHT22;38827;53.024;6.596;2022-10-17T22:49:22;13.90;90.80
52963;DHT22;38827;53.024;6.596;2022-10-17T22:52:09;13.90;90.80
52963;DHT22;38827;53.024;6.596;2022-10-17T22:54:55;13.90;90.70
52963;DHT22;38827;53.024;6.596;2022-10-17T22:57:30;13.80;90.80
52963;DHT22;38827;53.024;6.596;2022-10-17T23:00:12;13.80;90.80
52963;DHT22;38827;53.024;6.596;2022-10-17T23:02:46;13.80;90.90
52963;DHT22;38827;53.024;6.596;2022-10-17T23:05:27;13.80;90.90
52963;DHT22;38827;53.024;6.596;2022-10-17T23:08:12;13.80;90.90
52963;DHT22;38827;53.024;6.596;2022-10-17T23:10:50;13.80;90.90
52963;DHT22;38827;53.024;6.596;2022-10-17T23:13:16;13.70;90.90
52963;DHT22;38827;53.024;6.596;2022-10-17T23:15:54;13.70;90.80
52963;DHT22;38827;53.024;6.596;2022-10-17T23:18:28;13.70;90.90
52963;DHT22;38827;53.024;6.596;2022-10-17T23:21:00;13.70;90.90
52963;DHT22;38827;53.024;6.596;2022-10-17T23:23:26;13.70;91.00
52963;DHT22;38827;53.024;6.596;2022-10-17T23:26:14;13.60;90.90
52963;DHT22;38827;53.024;6.596;2022-10-17T23:28:52;13.60;90.80
52963;DHT22;38827;53.024;6.596;2022-10-17T23:34:16;13.60;90.90
52963;DHT22;38827;53.024;6.596;2022-10-17T23:36:57;13.60;91.10
52963;DHT22;38827;53.024;6.596;2022-10-17T23:39:41;13.60;90.90
52963;DHT22;38827;53.024;6.596;2022-10-17T23:42:12;13.60;91.00
52963;DHT22;38827;53.024;6.596;2022-10-17T23:44:40;13.60;91.00
52963;DHT22;38827;53.024;6.596;2022-10-17T23:47:12;13.50;90.90
52963;DHT22;38827;53.024;6.596;2022-10-17T23:50:05;13.50;91.00
52963;DHT22;38827;53.024;6.596;2022-10-17T23:52:31;13.50;91.00
52963;DHT22;38827;53.024;6.596;2022-10-17T23:55:09;13.50;90.90
52963;DHT22;38827;53.024;6.596;2022-10-17T23:57:36;13.50;90.90
